This is the latest recevied weather packets stored in our database for station/object K3FAZ. If no packets are shown the sender has not sent any weather packets the latest 1 day(s).
| Time | Temp. | Humidity | Pressure | Rain* | Wind** | Luminosity | Snow |
|---|---|---|---|---|---|---|---|
| 1778103686 | 12.22° C | 69% | 1014 hPa | 0 mm | - | 161 W/m² | - |
| 1778103384 | 12.22° C | 70% | 1013.9 hPa | 0 mm | - | 108 W/m² | - |
| 1778103081 | 12.22° C | 69% | 1013.8 hPa | 0 mm | - | 81 W/m² | - |
| 1778102473 | 12.22° C | 67% | 1013.8 hPa | 0 mm | - | 64 W/m² | - |
| 1778100651 | 12.22° C | 68% | 1013.2 hPa | 0 mm | - | 108 W/m² | - |
| 1778100046 | 12.22° C | 69% | 1013.3 hPa | 0 mm | - | 172 W/m² | - |
| 1778098834 | 13.33° C | 71% | 1013.1 hPa | 0 mm | - | 309 W/m² | - |
| 1778094589 | 12.22° C | 77% | 1013.2 hPa | 0 mm | - | 121 W/m² | - |
| 1778093680 | 11.67° C | 77% | 1012.9 hPa | 0 mm | - | 176 W/m² | - |
| 1778093073 | 12.22° C | 77% | 1013 hPa | 0 mm | - | 135 W/m² | - |
| 1778092466 | 12.78° C | 77% | 1012.7 hPa | 0 mm | - | 200 W/m² | - |
| 1778091256 | 12.78° C | 75% | 1012.8 hPa | 0 mm | - | 213 W/m² | - |
| 1778089437 | 13.89° C | 76% | 1012.6 hPa | 0 mm | - | 587 W/m² | - |
| 1778089134 | 12.78° C | 79% | 1012.6 hPa | 0 mm | - | 553 W/m² | - |
| 1778086712 | 11.67° C | 83% | 1012.7 hPa | 0 mm | - | 267 W/m² | - |
| 1778085194 | 11.67° C | 85% | 1012.2 hPa | 0 mm | - | 249 W/m² | - |
| 1778084588 | 11.67° C | 86% | 1012.1 hPa | 0 mm | - | 142 W/m² | - |
| 1778084285 | 11.67° C | 87% | 1012.1 hPa | 0 mm | - | 186 W/m² | - |
| 1778083680 | 11.11° C | 89% | 1012 hPa | 0 mm | - | 443 W/m² | - |
| 1778079518 | 10° C | 96% | 1011.4 hPa | 0 mm | - | 223 W/m² | - |
| 1778077702 | 10° C | 97% | 1010.5 hPa | 0 mm | - | 193 W/m² | - |
| 1778077098 | 10° C | 97% | 1010.6 hPa | 0 mm | - | 196 W/m² | - |
| 1778075887 | 10° C | 97% | 1010.4 hPa | 0 mm | - | 165 W/m² | - |
| 1778075583 | 10° C | 97% | 1010.3 hPa | 0 mm | - | 152 W/m² | - |
| 1778074976 | 10° C | 97% | 1010.2 hPa | 0 mm | - | 65 W/m² | - |
* Rain latest hour (hover to see other rain measurements)
** Current wind speed in m/s (hover to see current wind gust speed)